sensor_id;sensor_type;location;lat;lon;timestamp;pressure;altitude;pressure_sealevel;temperature;humidity
21086;BME280;34247;50.064;19.970;2023-03-21T04:14:35;99217.03;;;11.35;100.00
21086;BME280;34247;50.064;19.970;2023-03-21T04:15:48;99208.94;;;11.36;100.00
21086;BME280;34247;50.064;19.970;2023-03-21T04:16:52;99214.91;;;11.40;100.00
21086;BME280;34247;50.064;19.970;2023-03-21T04:17:57;99211.16;;;11.42;100.00
21086;BME280;34247;50.064;19.970;2023-03-21T04:19:00;99211.03;;;11.44;100.00
21086;BME280;34247;50.064;19.970;2023-03-21T04:20:05;99206.50;;;11.46;100.00
21086;BME280;34247;50.064;19.970;2023-03-21T04:21:20;99208.78;;;11.50;100.00
21086;BME280;34247;50.064;19.970;2023-03-21T04:22:25;99214.09;;;11.50;100.00
21086;BME280;34247;50.064;19.970;2023-03-21T04:23:29;99211.69;;;11.47;100.00
21086;BME280;34247;50.064;19.970;2023-03-21T04:24:33;99206.50;;;11.46;100.00
21086;BME280;34247;50.064;19.970;2023-03-21T04:25:39;99208.91;;;11.49;100.00
21086;BME280;34247;50.064;19.970;2023-03-21T04:26:59;99213.06;;;11.53;100.00
21086;BME280;34247;50.064;19.970;2023-03-21T04:28:03;99214.09;;;11.50;100.00
21086;BME280;34247;50.064;19.970;2023-03-21T04:29:07;99209.44;;;11.54;100.00
21086;BME280;34247;50.064;19.970;2023-03-21T04:30:11;99216.56;;;11.53;100.00
21086;BME280;34247;50.064;19.970;2023-03-21T04:31:15;99219.22;;;11.53;100.00
21086;BME280;34247;50.064;19.970;2023-03-21T04:32:28;99216.44;;;11.55;100.00
21086;BME280;34247;50.064;19.970;2023-03-21T04:33:36;99208.59;;;11.53;100.00
21086;BME280;34247;50.064;19.970;2023-03-21T04:34:44;99208.47;;;11.55;100.00
21086;BME280;34247;50.064;19.970;2023-03-21T04:35:53;99214.75;;;11.54;100.00
21086;BME280;34247;50.064;19.970;2023-03-21T04:37:04;99215.72;;;11.53;100.00
21086;BME280;34247;50.064;19.970;2023-03-21T04:38:13;99220.28;;;11.51;100.00
21086;BME280;34247;50.064;19.970;2023-03-21T04:39:20;99211.69;;;11.47;100.00
21086;BME280;34247;50.064;19.970;2023-03-21T04:40:24;99215.06;;;11.49;100.00
21086;BME280;34247;50.064;19.970;2023-03-21T04:41:29;99212.66;;;11.46;100.00
21086;BME280;34247;50.064;19.970;2023-03-21T04:42:34;99212.53;;;11.48;100.00
21086;BME280;34247;50.064;19.970;2023-03-21T04:43:38;99211.03;;;11.44;100.00
21086;BME280;34247;50.064;19.970;2023-03-21T04:44:42;99215.44;;;11.45;100.00
21086;BME280;34247;50.064;19.970;2023-03-21T04:45:46;99218.16;;;11.43;100.00
21086;BME280;34247;50.064;19.970;2023-03-21T04:46:50;99213.31;;;11.37;100.00
21086;BME280;34247;50.064;19.970;2023-03-21T04:47:54;99217.44;;;11.41;100.00
21086;BME280;34247;50.064;19.970;2023-03-21T04:49:00;99218.72;;;11.36;100.00
21086;BME280;34247;50.064;19.970;2023-03-21T04:50:05;99217.03;;;11.35;100.00
21086;BME280;34247;50.064;19.970;2023-03-21T04:51:09;99221.50;;;11.34;100.00
21086;BME280;34247;50.064;19.970;2023-03-21T04:52:14;99210.34;;;11.29;100.00
21086;BME280;34247;50.064;19.970;2023-03-21T04:53:18;99220.66;;;11.33;100.00
21086;BME280;34247;50.064;19.970;2023-03-21T04:54:22;99217.38;;;11.30;100.00
21086;BME280;34247;50.064;19.970;2023-03-21T04:55:26;99222.47;;;11.33;100.00
21086;BME280;34247;50.064;19.970;2023-03-21T04:56:30;99219.09;;;11.31;100.00
21086;BME280;34247;50.064;19.970;2023-03-21T04:57:38;99221.75;;;11.31;100.00
21086;BME280;34247;50.064;19.970;2023-03-21T04:58:43;99216.31;;;11.32;100.00
21086;BME280;34247;50.064;19.970;2023-03-21T04:59:47;99216.75;;;11.26;100.00
21086;BME280;34247;50.064;19.970;2023-03-21T05:00:50;99223.56;;;11.30;100.00
21086;BME280;34247;50.064;19.970;2023-03-21T05:01:55;99222.59;;;11.31;100.00
21086;BME280;34247;50.064;19.970;2023-03-21T05:03:00;99213.78;;;11.31;100.00
21086;BME280;34247;50.064;19.970;2023-03-21T05:04:05;99225.97;;;11.33;100.00
21086;BME280;34247;50.064;19.970;2023-03-21T05:05:09;99226.94;;;11.32;100.00
21086;BME280;34247;50.064;19.970;2023-03-21T05:06:14;99225.44;;;11.28;100.00
21086;BME280;34247;50.064;19.970;2023-03-21T05:07:18;99223.88;;;11.26;100.00
21086;BME280;34247;50.064;19.970;2023-03-21T05:08:22;99224.09;;;11.23;100.00
21086;BME280;34247;50.064;19.970;2023-03-21T05:09:26;99219.63;;;11.23;100.00
21086;BME280;34247;50.064;19.970;2023-03-21T05:10:31;99228.66;;;11.21;100.00
21086;BME280;34247;50.064;19.970;2023-03-21T05:11:38;99227.59;;;11.23;100.00
21086;BME280;34247;50.064;19.970;2023-03-21T05:12:43;99226.13;;;11.19;100.00
21086;BME280;34247;50.064;19.970;2023-03-21T05:13:47;99225.81;;;11.11;100.00
21086;BME280;34247;50.064;19.970;2023-03-21T05:14:51;99226.78;;;11.10;100.00
21086;BME280;34247;50.064;19.970;2023-03-21T05:15:55;99231.13;;;11.11;100.00
21086;BME280;34247;50.064;19.970;2023-03-21T05:16:59;99220.50;;;11.11;100.00
21086;BME280;34247;50.064;19.970;2023-03-21T05:18:07;99227.94;;;11.06;100.00
21086;BME280;34247;50.064;19.970;2023-03-21T05:19:15;99221.66;;;11.07;100.00
21086;BME280;34247;50.064;19.970;2023-03-21T05:20:20;99228.72;;;11.08;100.00
21086;BME280;34247;50.064;19.970;2023-03-21T05:21:25;99226.97;;;11.07;100.00
21086;BME280;34247;50.064;19.970;2023-03-21T05:22:32;99228.72;;;11.08;100.00
21086;BME280;34247;50.064;19.970;2023-03-21T05:23:42;99229.97;;;11.02;100.00
21086;BME280;34247;50.064;19.970;2023-03-21T05:24:46;99228.91;;;11.05;100.00
21086;BME280;34247;50.064;19.970;2023-03-21T05:25:52;99229.75;;;11.05;100.00
21086;BME280;34247;50.064;19.970;2023-03-21T05:26:56;99237.41;;;11.10;100.00
21086;BME280;34247;50.064;19.970;2023-03-21T05:28:06;99224.31;;;11.07;100.00
21086;BME280;34247;50.064;19.970;2023-03-21T05:29:10;99226.13;;;11.07;100.00
21086;BME280;34247;50.064;19.970;2023-03-21T05:30:19;99228.72;;;11.08;100.00
21086;BME280;34247;50.064;19.970;2023-03-21T05:31:23;99230.16;;;11.12;100.00
21086;BME280;34247;50.064;19.970;2023-03-21T05:32:29;99230.16;;;11.12;100.00
21086;BME280;34247;50.064;19.970;2023-03-21T05:33:33;99235.25;;;11.15;100.00
21086;BME280;34247;50.064;19.970;2023-03-21T05:34:37;99236.13;;;11.16;100.00
21086;BME280;34247;50.064;19.970;2023-03-21T05:35:40;99226.97;;;11.20;100.00
21086;BME280;34247;50.064;19.970;2023-03-21T05:36:45;99236.50;;;11.22;100.00
21086;BME280;34247;50.064;19.970;2023-03-21T05:37:49;99233.97;;;11.21;100.00
21086;BME280;34247;50.064;19.970;2023-03-21T05:38:53;99238.25;;;11.11;100.00
21086;BME280;34247;50.064;19.970;2023-03-21T05:39:57;99241.03;;;11.09;100.00
21086;BME280;34247;50.064;19.970;2023-03-21T05:41:01;99239.09;;;11.11;100.00
21086;BME280;34247;50.064;19.970;2023-03-21T05:42:05;99243.56;;;11.11;100.00
21086;BME280;34247;50.064;19.970;2023-03-21T05:43:10;99250.56;;;11.12;100.00
21086;BME280;34247;50.064;19.970;2023-03-21T05:44:13;99245.88;;;11.15;100.00
21086;BME280;34247;50.064;19.970;2023-03-21T05:45:22;99246.63;;;11.17;100.00
21086;BME280;34247;50.064;19.970;2023-03-21T05:46:26;99245.03;;;11.15;100.00
21086;BME280;34247;50.064;19.970;2023-03-21T05:47:30;99252.16;;;11.14;100.00
21086;BME280;34247;50.064;19.970;2023-03-21T05:48:34;99244.84;;;11.18;100.00
21086;BME280;34247;50.064;19.970;2023-03-21T05:49:39;99246.53;;;11.19;100.00
21086;BME280;34247;50.064;19.970;2023-03-21T05:50:44;99251.00;;;11.18;100.00
21086;BME280;34247;50.064;19.970;2023-03-21T05:51:48;99252.06;;;11.16;100.00
21086;BME280;34247;50.064;19.970;2023-03-21T05:52:52;99245.78;;;11.17;100.00
21086;BME280;34247;50.064;19.970;2023-03-21T05:53:56;99242.72;;;11.10;100.00
21086;BME280;34247;50.064;19.970;2023-03-21T05:55:00;99252.38;;;11.11;100.00
21086;BME280;34247;50.064;19.970;2023-03-21T05:56:04;99256.13;;;11.09;100.00
21086;BME280;34247;50.064;19.970;2023-03-21T05:57:09;99255.28;;;11.08;100.00
21086;BME280;34247;50.064;19.970;2023-03-21T05:58:13;99251.22;;;11.02;100.00
21086;BME280;34247;50.064;19.970;2023-03-21T05:59:17;99255.03;;;10.98;100.00
21086;BME280;34247;50.064;19.970;2023-03-21T06:00:20;99259.63;;;10.96;100.00
21086;BME280;34247;50.064;19.970;2023-03-21T06:01:24;99248.34;;;10.93;100.00
21086;BME280;34247;50.064;19.970;2023-03-21T06:02:28;99248.69;;;10.88;100.00
21086;BME280;34247;50.064;19.970;2023-03-21T06:03:32;99268.13;;;10.89;100.00
21086;BME280;34247;50.064;19.970;2023-03-21T06:04:36;99259.19;;;10.90;100.00
21086;BME280;34247;50.064;19.970;2023-03-21T06:05:40;99262.94;;;10.87;100.00
21086;BME280;34247;50.064;19.970;2023-03-21T06:06:44;99258.47;;;10.88;100.00
21086;BME280;34247;50.064;19.970;2023-03-21T06:07:48;99252.94;;;10.91;100.00
21086;BME280;34247;50.064;19.970;2023-03-21T06:08:51;99258.13;;;10.92;100.00
21086;BME280;34247;50.064;19.970;2023-03-21T06:09:55;99260.69;;;10.81;100.00
21086;BME280;34247;50.064;19.970;2023-03-21T06:10:59;99263.97;;;10.85;100.00
21086;BME280;34247;50.064;19.970;2023-03-21T06:12:03;99258.91;;;10.82;100.00
21086;BME280;34247;50.064;19.970;2023-03-21T06:13:07;99264.75;;;10.87;100.00
21086;BME280;34247;50.064;19.970;2023-03-21T06:14:11;99251.78;;;10.95;100.00
21086;BME280;34247;50.064;19.970;2023-03-21T06:15:15;99261.31;;;10.85;100.00
21086;BME280;34247;50.064;19.970;2023-03-21T06:16:19;99261.84;;;10.90;100.00
21086;BME280;34247;50.064;19.970;2023-03-21T06:17:23;99256.31;;;10.93;100.00
21086;BME280;34247;50.064;19.970;2023-03-21T06:18:27;99261.44;;;10.96;100.00
21086;BME280;34247;50.064;19.970;2023-03-21T06:19:31;99255.03;;;10.98;100.00
21086;BME280;34247;50.064;19.970;2023-03-21T06:20:35;99253.13;;;11.00;100.00
21086;BME280;34247;50.064;19.970;2023-03-21T06:21:42;99260.25;;;11.00;100.00
21086;BME280;34247;50.064;19.970;2023-03-21T06:22:45;99251.34;;;11.01;100.00
21086;BME280;34247;50.064;19.970;2023-03-21T06:23:49;99262.47;;;11.06;100.00
21086;BME280;34247;50.064;19.970;2023-03-21T06:24:56;99253.53;;;11.07;100.00
21086;BME280;34247;50.064;19.970;2023-03-21T06:26:01;99262.28;;;11.09;100.00
21086;BME280;34247;50.064;19.970;2023-03-21T06:27:05;99257.94;;;11.08;100.00
21086;BME280;34247;50.064;19.970;2023-03-21T06:28:08;99262.78;;;11.14;100.00
21086;BME280;34247;50.064;19.970;2023-03-21T06:29:12;99262.56;;;11.17;100.00
21086;BME280;34247;50.064;19.970;2023-03-21T06:30:17;99264.16;;;11.20;100.00
21086;BME280;34247;50.064;19.970;2023-03-21T06:31:21;99260.13;;;11.14;100.00
21086;BME280;34247;50.064;19.970;2023-03-21T06:32:26;99268.63;;;11.19;100.00
21086;BME280;34247;50.064;19.970;2023-03-21T06:33:30;99265.00;;;11.20;100.00
21086;BME280;34247;50.064;19.970;2023-03-21T06:34:34;99263.72;;;11.26;100.00
21086;BME280;34247;50.064;19.970;2023-03-21T06:35:41;99257.25;;;11.30;100.00
21086;BME280;34247;50.064;19.970;2023-03-21T06:36:45;99257.00;;;11.33;100.00
21086;BME280;34247;50.064;19.970;2023-03-21T06:37:49;99257.53;;;11.38;100.00
21086;BME280;34247;50.064;19.970;2023-03-21T06:38:56;99256.34;;;11.42;100.00
21086;BME280;34247;50.064;19.970;2023-03-21T06:40:00;99256.69;;;11.38;100.00
21086;BME280;34247;50.064;19.970;2023-03-21T06:41:05;99261.53;;;11.44;100.00
21086;BME280;34247;50.064;19.970;2023-03-21T06:42:13;99259.97;;;11.41;100.00
21086;BME280;34247;50.064;19.970;2023-03-21T06:43:18;99259.78;;;11.31;100.00
21086;BME280;34247;50.064;19.970;2023-03-21T06:44:22;99260.00;;;11.28;100.00
21086;BME280;34247;50.064;19.970;2023-03-21T06:45:27;99263.41;;;11.30;100.00
21086;BME280;34247;50.064;19.970;2023-03-21T06:46:30;99260.94;;;11.27;100.00
21086;BME280;34247;50.064;19.970;2023-03-21T06:47:34;99265.00;;;11.20;100.00
21086;BME280;34247;50.064;19.970;2023-03-21T06:48:40;99261.19;;;11.24;100.00
21086;BME280;34247;50.064;19.970;2023-03-21T06:49:47;99271.69;;;11.26;100.00
21086;BME280;34247;50.064;19.970;2023-03-21T06:50:52;99268.50;;;11.21;100.00
21086;BME280;34247;50.064;19.970;2023-03-21T06:51:56;99263.19;;;11.21;100.00
21086;BME280;34247;50.064;19.970;2023-03-21T06:53:00;99266.69;;;11.21;100.00
21086;BME280;34247;50.064;19.970;2023-03-21T06:54:04;99266.69;;;11.21;100.00
21086;BME280;34247;50.064;19.970;2023-03-21T06:55:09;99264.16;;;11.20;100.00
21086;BME280;34247;50.064;19.970;2023-03-21T06:56:14;99263.00;;;11.24;100.00
21086;BME280;34247;50.064;19.970;2023-03-21T06:57:17;99276.38;;;11.22;100.00
21086;BME280;34247;50.064;19.970;2023-03-21T06:58:24;99266.09;;;11.18;100.00
21086;BME280;34247;50.064;19.970;2023-03-21T06:59:29;99275.88;;;11.04;100.00
21086;BME280;34247;50.064;19.970;2023-03-21T07:00:33;99269.28;;;11.10;100.00
21086;BME280;34247;50.064;19.970;2023-03-21T07:01:37;99270.34;;;11.08;100.00
21086;BME280;34247;50.064;19.970;2023-03-21T07:02:41;99273.94;;;11.07;100.00
21086;BME280;34247;50.064;19.970;2023-03-21T07:03:45;99275.44;;;10.98;100.00
21086;BME280;34247;50.064;19.970;2023-03-21T07:04:48;99265.66;;;10.98;100.00
21086;BME280;34247;50.064;19.970;2023-03-21T07:05:52;99273.97;;;10.94;100.00
21086;BME280;34247;50.064;19.970;2023-03-21T07:06:56;99270.38;;;10.95;100.00
21086;BME280;34247;50.064;19.970;2023-03-21T07:08:00;99269.41;;;10.96;100.00
21086;BME280;34247;50.064;19.970;2023-03-21T07:09:05;99274.59;;;10.97;100.00
21086;BME280;34247;50.064;19.970;2023-03-21T07:10:09;99266.22;;;11.03;100.00
21086;BME280;34247;50.064;19.970;2023-03-21T07:11:13;99271.72;;;11.13;100.00
21086;BME280;34247;50.064;19.970;2023-03-21T07:12:17;99266.94;;;11.18;100.00
21086;BME280;34247;50.064;19.970;2023-03-21T07:13:22;99268.91;;;11.27;100.00
21086;BME280;34247;50.064;19.970;2023-03-21T07:14:25;99269.47;;;11.32;100.00
21086;BME280;34247;50.064;19.970;2023-03-21T07:15:29;99268.50;;;11.33;100.00
21086;BME280;34247;50.064;19.970;2023-03-21T07:16:33;99268.38;;;11.35;100.00
21086;BME280;34247;50.064;19.970;2023-03-21T07:17:37;99267.94;;;11.41;100.00
21086;BME280;34247;50.064;19.970;2023-03-21T07:18:41;99265.13;;;11.55;100.00
21086;BME280;34247;50.064;19.970;2023-03-21T07:19:45;99269.78;;;11.65;100.00
21086;BME280;34247;50.064;19.970;2023-03-21T07:20:50;99258.09;;;11.67;100.00
21086;BME280;34247;50.064;19.970;2023-03-21T07:21:53;99262.91;;;11.86;100.00
21086;BME280;34247;50.064;19.970;2023-03-21T07:22:57;99270.22;;;12.19;100.00
21086;BME280;34247;50.064;19.970;2023-03-21T07:24:01;99261.00;;;12.58;99.62
21086;BME280;34247;50.064;19.970;2023-03-21T07:25:07;99268.69;;;12.96;97.55
21086;BME280;34247;50.064;19.970;2023-03-21T07:26:12;99262.63;;;13.39;95.70
21086;BME280;34247;50.064;19.970;2023-03-21T07:27:17;99267.69;;;13.65;90.85
21086;BME280;34247;50.064;19.970;2023-03-21T07:28:21;99261.31;;;13.99;91.23
21086;BME280;34247;50.064;19.970;2023-03-21T07:29:25;99266.41;;;14.23;90.78
21086;BME280;34247;50.064;19.970;2023-03-21T07:30:29;99261.47;;;14.40;87.96
21086;BME280;34247;50.064;19.970;2023-03-21T07:31:33;99265.25;;;14.37;85.60
21086;BME280;34247;50.064;19.970;2023-03-21T07:32:38;99263.91;;;14.43;84.63
21086;BME280;34247;50.064;19.970;2023-03-21T07:33:42;99265.25;;;14.37;83.40
21086;BME280;34247;50.064;19.970;2023-03-21T07:34:46;99265.44;;;14.24;81.89
21086;BME280;34247;50.064;19.970;2023-03-21T07:35:52;99266.09;;;14.38;83.98
21086;BME280;34247;50.064;19.970;2023-03-21T07:36:56;99260.25;;;14.44;84.22
21086;BME280;34247;50.064;19.970;2023-03-21T07:38:00;99264.66;;;14.33;82.14
21086;BME280;34247;50.064;19.970;2023-03-21T07:39:04;99260.09;;;14.24;81.99
21086;BME280;34247;50.064;19.970;2023-03-21T07:40:10;99263.38;;;14.28;82.11
21086;BME280;34247;50.064;19.970;2023-03-21T07:41:16;99265.56;;;14.23;83.05
21086;BME280;34247;50.064;19.970;2023-03-21T07:42:20;99263.22;;;14.29;82.31
21086;BME280;34247;50.064;19.970;2023-03-21T07:43:25;99253.72;;;14.16;81.50
21086;BME280;34247;50.064;19.970;2023-03-21T07:44:29;99262.28;;;14.19;81.39
21086;BME280;34247;50.064;19.970;2023-03-21T07:45:33;99265.09;;;14.18;80.36
21086;BME280;34247;50.064;19.970;2023-03-21T07:46:36;99267.53;;;14.21;81.63
21086;BME280;34247;50.064;19.970;2023-03-21T07:47:40;99272.66;;;14.13;81.73
21086;BME280;34247;50.064;19.970;2023-03-21T07:48:44;99264.66;;;14.13;81.30
21086;BME280;34247;50.064;19.970;2023-03-21T07:49:48;99270.00;;;14.13;81.82
21086;BME280;34247;50.064;19.970;2023-03-21T07:50:52;99268.91;;;14.04;81.90
21086;BME280;34247;50.064;19.970;2023-03-21T07:51:59;99268.97;;;13.93;82.13
21086;BME280;34247;50.064;19.970;2023-03-21T07:53:07;99274.09;;;13.73;82.10
21086;BME280;34247;50.064;19.970;2023-03-21T07:54:11;99267.56;;;13.66;82.67
21086;BME280;34247;50.064;19.970;2023-03-21T07:55:24;99269.28;;;13.56;82.45
21086;BME280;34247;50.064;19.970;2023-03-21T07:56:28;99269.28;;;13.56;83.15
21086;BME280;34247;50.064;19.970;2023-03-21T07:57:32;99268.69;;;13.52;82.92
21086;BME280;34247;50.064;19.970;2023-03-21T07:58:36;99274.16;;;13.40;83.62
21086;BME280;34247;50.064;19.970;2023-03-21T07:59:40;99272.34;;;13.40;83.61
21086;BME280;34247;50.064;19.970;2023-03-21T08:00:44;99268.09;;;13.38;83.53
21086;BME280;34247;50.064;19.970;2023-03-21T08:01:48;99274.03;;;13.30;84.19
21086;BME280;34247;50.064;19.970;2023-03-21T08:02:56;99269.69;;;13.29;84.53
21086;BME280;34247;50.064;19.970;2023-03-21T08:04:01;99270.41;;;13.31;84.53
21086;BME280;34247;50.064;19.970;2023-03-21T08:05:05;99268.13;;;13.27;85.11
21086;BME280;34247;50.064;19.970;2023-03-21T08:06:09;99269.53;;;13.19;84.87
21086;BME280;34247;50.064;19.970;2023-03-21T08:07:14;99270.63;;;13.17;85.45
21086;BME280;34247;50.064;19.970;2023-03-21T08:08:18;99268.78;;;13.17;85.37
21086;BME280;34247;50.064;19.970;2023-03-21T08:09:22;99268.59;;;13.20;85.76
21086;BME280;34247;50.064;19.970;2023-03-21T08:10:26;99262.44;;;13.20;86.16
21086;BME280;34247;50.064;19.970;2023-03-21T08:11:31;99261.44;;;13.21;86.09
21086;BME280;34247;50.064;19.970;2023-03-21T08:12:35;99267.28;;;13.26;85.90
21086;BME280;34247;50.064;19.970;2023-03-21T08:13:39;99261.31;;;13.22;85.80
21086;BME280;34247;50.064;19.970;2023-03-21T08:14:43;99264.63;;;13.26;85.39
21086;BME280;34247;50.064;19.970;2023-03-21T08:15:49;99266.19;;;13.29;85.22
21086;BME280;34247;50.064;19.970;2023-03-21T08:16:53;99266.44;;;13.26;85.46
21086;BME280;34247;50.064;19.970;2023-03-21T08:17:58;99264.00;;;13.22;84.89
21086;BME280;34247;50.064;19.970;2023-03-21T08:19:02;99268.47;;;13.22;84.78
21086;BME280;34247;50.064;19.970;2023-03-21T08:20:09;99269.06;;;13.14;83.86
21086;BME280;34247;50.064;19.970;2023-03-21T08:21:14;99267.09;;;13.16;84.16
21086;BME280;34247;50.064;19.970;2023-03-21T08:22:21;99273.66;;;13.12;84.49
21086;BME280;34247;50.064;19.970;2023-03-21T08:23:25;99273.66;;;12.90;84.56
21086;BME280;34247;50.064;19.970;2023-03-21T08:24:29;99275.22;;;12.92;84.76
21086;BME280;34247;50.064;19.970;2023-03-21T08:25:33;99273.28;;;12.94;84.84
21086;BME280;34247;50.064;19.970;2023-03-21T08:26:38;99265.28;;;12.94;85.00
21086;BME280;34247;50.064;19.970;2023-03-21T08:27:44;99265.88;;;12.87;85.66
21086;BME280;34247;50.064;19.970;2023-03-21T08:28:48;99265.88;;;12.87;85.84
21086;BME280;34247;50.064;19.970;2023-03-21T08:29:52;99270.00;;;12.80;86.06
21086;BME280;34247;50.064;19.970;2023-03-21T08:30:56;99270.63;;;12.83;86.02
21086;BME280;34247;50.064;19.970;2023-03-21T08:32:01;99272.19;;;12.86;85.77
21086;BME280;34247;50.064;19.970;2023-03-21T08:33:05;99273.38;;;12.82;86.68
21086;BME280;34247;50.064;19.970;2023-03-21T08:34:10;99276.91;;;12.82;86.09
21086;BME280;34247;50.064;19.970;2023-03-21T08:35:16;99276.66;;;12.85;86.09
21086;BME280;34247;50.064;19.970;2023-03-21T08:36:22;99274.00;;;12.85;86.47
21086;BME280;34247;50.064;19.970;2023-03-21T08:37:27;99283.09;;;12.83;86.66
21086;BME280;34247;50.064;19.970;2023-03-21T08:38:32;99274.25;;;12.82;86.52
21086;BME280;34247;50.064;19.970;2023-03-21T08:39:37;99278.69;;;12.82;86.84
21086;BME280;34247;50.064;19.970;2023-03-21T08:40:42;99285.84;;;12.70;88.24
21086;BME280;34247;50.064;19.970;2023-03-21T08:41:46;99282.69;;;12.65;88.46
21086;BME280;34247;50.064;19.970;2023-03-21T08:42:54;99284.16;;;12.69;88.39
21086;BME280;34247;50.064;19.970;2023-03-21T08:43:58;99288.72;;;12.67;88.17
21086;BME280;34247;50.064;19.970;2023-03-21T08:45:05;99291.38;;;12.56;90.51
21086;BME280;34247;50.064;19.970;2023-03-21T08:46:09;99290.53;;;12.55;90.54
21086;BME280;34247;50.064;19.970;2023-03-21T08:47:14;99295.97;;;12.54;90.39
21086;BME280;34247;50.064;19.970;2023-03-21T08:48:19;99289.63;;;12.43;91.63
21086;BME280;34247;50.064;19.970;2023-03-21T08:49:23;99292.75;;;12.37;92.60
21086;BME280;34247;50.064;19.970;2023-03-21T08:50:27;99298.00;;;12.39;92.17
21086;BME280;34247;50.064;19.970;2023-03-21T08:51:32;99292.53;;;12.40;92.55
21086;BME280;34247;50.064;19.970;2023-03-21T08:52:36;99302.34;;;12.40;92.80
21086;BME280;34247;50.064;19.970;2023-03-21T08:53:40;99305.00;;;12.40;92.82
21086;BME280;34247;50.064;19.970;2023-03-21T08:54:44;99297.09;;;12.27;94.04
21086;BME280;34247;50.064;19.970;2023-03-21T08:55:50;99292.75;;;12.26;94.50
21086;BME280;34247;50.064;19.970;2023-03-21T08:56:54;99297.22;;;12.26;95.19
21086;BME280;34247;50.064;19.970;2023-03-21T08:58:03;99299.88;;;12.26;95.98
21086;BME280;34247;50.064;19.970;2023-03-21T08:59:06;99295.53;;;12.25;95.35
21086;BME280;34247;50.064;19.970;2023-03-21T09:00:15;99303.59;;;12.23;95.43
21086;BME280;34247;50.064;19.970;2023-03-21T09:01:20;99295.53;;;12.25;96.14
21086;BME280;34247;50.064;19.970;2023-03-21T09:02:24;99301.56;;;12.27;96.71
21086;BME280;34247;50.064;19.970;2023-03-21T09:03:27;99295.53;;;12.25;97.27
21086;BME280;34247;50.064;19.970;2023-03-21T09:04:32;99295.16;;;12.29;95.76
21086;BME280;34247;50.064;19.970;2023-03-21T09:05:37;99299.50;;;12.30;96.24
21086;BME280;34247;50.064;19.970;2023-03-21T09:06:42;99303.13;;;12.29;96.50
21086;BME280;34247;50.064;19.970;2023-03-21T09:07:52;99301.72;;;12.36;96.04
21086;BME280;34247;50.064;19.970;2023-03-21T09:08:55;99297.63;;;12.43;95.86
21086;BME280;34247;50.064;19.970;2023-03-21T09:09:59;99305.59;;;12.43;95.28
21086;BME280;34247;50.064;19.970;2023-03-21T09:11:23;99299.44;;;12.43;94.84
21086;BME280;34247;50.064;19.970;2023-03-21T09:12:26;99299.94;;;12.48;94.88
21086;BME280;34247;50.064;19.970;2023-03-21T09:13:31;99297.66;;;12.55;94.58
21086;BME280;34247;50.064;19.970;2023-03-21T09:14:35;99298.91;;;12.62;94.34
21086;BME280;34247;50.064;19.970;2023-03-21T09:15:39;99295.03;;;12.66;94.10
21086;BME280;34247;50.064;19.970;2023-03-21T09:16:46;99299.88;;;12.72;94.08
21086;BME280;34247;50.064;19.970;2023-03-21T09:17:54;99297.72;;;12.77;92.74
21086;BME280;34247;50.064;19.970;2023-03-21T09:19:00;99295.41;;;12.73;92.52
21086;BME280;34247;50.064;19.970;2023-03-21T09:20:10;99296.50;;;12.81;92.69
21086;BME280;34247;50.064;19.970;2023-03-21T09:21:22;99299.16;;;12.81;92.45
21086;BME280;34247;50.064;19.970;2023-03-21T09:22:27;99299.06;;;12.83;92.42
21086;BME280;34247;50.064;19.970;2023-03-21T09:23:31;99300.38;;;12.88;92.45
21086;BME280;34247;50.064;19.970;2023-03-21T09:24:35;99304.50;;;12.81;92.14
21086;BME280;34247;50.064;19.970;2023-03-21T09:25:40;99302.13;;;12.89;92.18
21086;BME280;34247;50.064;19.970;2023-03-21T09:26:45;99300.16;;;12.91;90.81
21086;BME280;34247;50.064;19.970;2023-03-21T09:27:49;99301.34;;;12.87;90.65
21086;BME280;34247;50.064;19.970;2023-03-21T09:28:55;99301.97;;;12.91;90.41
21086;BME280;34247;50.064;19.970;2023-03-21T09:30:03;99301.59;;;12.84;90.01
21086;BME280;34247;50.064;19.970;2023-03-21T09:31:09;99298.22;;;12.82;90.10
21086;BME280;34247;50.064;19.970;2023-03-21T09:32:18;99309.59;;;12.84;90.71
21086;BME280;34247;50.064;19.970;2023-03-21T09:33:32;99313.34;;;12.82;90.02
21086;BME280;34247;50.064;19.970;2023-03-21T09:34:39;99312.22;;;12.73;89.57
21086;BME280;34247;50.064;19.970;2023-03-21T09:35:44;99301.44;;;12.75;89.71
21086;BME280;34247;50.064;19.970;2023-03-21T09:36:54;99304.28;;;12.84;89.44
21086;BME280;34247;50.064;19.970;2023-03-21T09:38:01;99308.97;;;12.81;89.19
21086;BME280;34247;50.064;19.970;2023-03-21T09:39:10;99312.47;;;12.81;88.73
21086;BME280;34247;50.064;19.970;2023-03-21T09:47:56;99303.56;;;12.93;88.76
21086;BME280;34247;50.064;19.970;2023-03-21T09:49:21;99301.38;;;12.98;88.76
21086;BME280;34247;50.064;19.970;2023-03-21T09:50:36;99303.19;;;13.09;88.41
21086;BME280;34247;50.064;19.970;2023-03-21T09:51:50;99300.91;;;13.05;88.27
21086;BME280;34247;50.064;19.970;2023-03-21T09:53:02;99306.00;;;13.08;87.59
21086;BME280;34247;50.064;19.970;2023-03-21T09:54:30;99299.81;;;13.07;87.02
21086;BME280;34247;50.064;19.970;2023-03-21T09:55:40;99307.31;;;13.02;87.23
21086;BME280;34247;50.064;19.970;2023-03-21T09:56:45;99295.94;;;13.00;87.07
21086;BME280;34247;50.064;19.970;2023-03-21T09:59:38;99301.13;;;13.02;87.67
21086;BME280;34247;50.064;19.970;2023-03-21T10:00:50;99302.47;;;13.07;87.66
21086;BME280;34247;50.064;19.970;2023-03-21T10:02:36;99307.69;;;13.09;87.66
21086;BME280;34247;50.064;19.970;2023-03-21T10:03:42;99301.88;;;13.04;87.90